Time;durP1;ratioP1;P1;durP2;ratioP2;P2;SDS_P1;SDS_P2;PMS_P1;PMS_P2;Temp;Humidity;BMP_temperature;BMP_pressure;BME280_temperature;BME280_humidity;BME280_pressure;Samples;Min_cycle;Max_cycle;Signal;HPM_P1;HPM_P2
2022/01/07 00:01:08;;;;;;;5.40;4.90;;;;;;;;;;5065213;28;20680;-75
2022/01/07 00:03:55;;;;;;;5.17;4.77;;;;;;;;;;5063555;28;20234;-76
2022/01/07 00:06:42;;;;;;;5.30;4.83;;;;;;;;;;5067220;28;20298;-75
2022/01/07 00:09:29;;;;;;;5.40;4.90;;;;;;;;;;5063394;28;20263;-74
2022/01/07 00:12:21;;;;;;;5.87;5.37;;;;;;;;;;5067695;28;20207;-75
2022/01/07 00:15:09;;;;;;;5.00;4.60;;;;;;;;;;5066649;28;20212;-75
2022/01/07 00:17:56;;;;;;;4.40;4.10;;;;;;;;;;5062526;28;20264;-75
2022/01/07 00:20:43;;;;;;;4.47;4.07;;;;;;;;;;5067628;28;20200;-75
2022/01/07 00:23:30;;;;;;;4.93;4.53;;;;;;;;;;5063787;28;20239;-75
2022/01/07 00:26:17;;;;;;;4.30;4.00;;;;;;;;;;5064694;28;20224;-75
2022/01/07 00:29:06;;;;;;;4.10;3.70;;;;;;;;;;5065545;28;20317;-75
2022/01/07 00:31:53;;;;;;;4.27;3.87;;;;;;;;;;5065232;28;20293;-76
2022/01/07 00:34:39;;;;;;;4.30;4.00;;;;;;;;;;5064242;28;20241;-75
2022/01/07 00:37:26;;;;;;;4.00;3.70;;;;;;;;;;5067072;28;20679;-75
2022/01/07 00:40:16;;;;;;;4.03;3.73;;;;;;;;;;5062060;28;20671;-74
2022/01/07 00:43:03;;;;;;;4.43;4.07;;;;;;;;;;5064721;28;20238;-75
2022/01/07 00:45:51;;;;;;;3.83;3.53;;;;;;;;;;5064650;28;20261;-74
2022/01/07 00:48:38;;;;;;;4.03;3.70;;;;;;;;;;5065543;28;20292;-75
2022/01/07 00:51:25;;;;;;;3.50;3.20;;;;;;;;;;5064328;28;20255;-75
2022/01/07 00:54:12;;;;;;;4.00;3.70;;;;;;;;;;5067153;28;20241;-75
2022/01/07 00:56:59;;;;;;;3.47;3.20;;;;;;;;;;5063626;28;20247;-76
2022/01/07 00:59:46;;;;;;;3.33;3.13;;;;;;;;;;5062256;28;20250;-76
2022/01/07 01:02:35;;;;;;;3.10;2.90;;;;;;;;;;5061233;28;20217;-76
2022/01/07 01:05:23;;;;;;;2.97;2.77;;;;;;;;;;5064618;28;20267;-74
2022/01/07 01:08:10;;;;;;;3.27;3.07;;;;;;;;;;5066706;28;20291;-75
2022/01/07 01:10:57;;;;;;;3.47;3.27;;;;;;;;;;5065026;28;20296;-75
2022/01/07 01:13:44;;;;;;;2.93;2.70;;;;;;;;;;5063395;28;20295;-75
2022/01/07 01:16:32;;;;;;;2.80;2.60;;;;;;;;;;5061402;28;20282;-75
2022/01/07 01:19:20;;;;;;;3.00;2.80;;;;;;;;;;5064503;28;20199;-75
2022/01/07 01:22:08;;;;;;;2.60;2.50;;;;;;;;;;5063890;28;20211;-75
2022/01/07 01:24:55;;;;;;;2.70;2.50;;;;;;;;;;5064494;28;20231;-75
2022/01/07 01:27:42;;;;;;;2.60;2.50;;;;;;;;;;5063089;28;20297;-75
2022/01/07 01:30:32;;;;;;;2.40;2.30;;;;;;;;;;5059110;28;20291;-75
2022/01/07 01:33:19;;;;;;;2.53;2.33;;;;;;;;;;5065908;28;20235;-75
2022/01/07 01:36:08;;;;;;;2.40;2.30;;;;;;;;;;5063523;28;20609;-74
2022/01/07 01:38:55;;;;;;;2.30;2.20;;;;;;;;;;5066583;28;20335;-74
2022/01/07 01:41:43;;;;;;;2.10;2.00;;;;;;;;;;5065009;28;20208;-75
2022/01/07 01:44:30;;;;;;;2.33;2.23;;;;;;;;;;5062929;28;20219;-75
2022/01/07 01:47:17;;;;;;;2.10;2.00;;;;;;;;;;5062645;28;20228;-75
2022/01/07 01:50:05;;;;;;;2.13;2.03;;;;;;;;;;5061081;28;20253;-75
2022/01/07 01:52:56;;;;;;;2.53;2.40;;;;;;;;;;5063898;28;20262;-74
2022/01/07 01:55:44;;;;;;;2.17;2.07;;;;;;;;;;5061763;28;20216;-72
2022/01/07 01:58:31;;;;;;;2.50;2.30;;;;;;;;;;5062150;28;20229;-75
2022/01/07 02:01:18;;;;;;;2.30;2.20;;;;;;;;;;5062281;28;20257;-75
2022/01/07 02:04:05;;;;;;;2.17;2.07;;;;;;;;;;5062974;28;20234;-75
2022/01/07 02:06:52;;;;;;;2.30;2.20;;;;;;;;;;5059221;28;20774;-75
2022/01/07 02:09:41;;;;;;;2.03;1.93;;;;;;;;;;5063965;28;20242;-74
2022/01/07 02:12:27;;;;;;;2.13;2.03;;;;;;;;;;5060581;28;20299;-74
2022/01/07 02:15:16;;;;;;;2.17;2.07;;;;;;;;;;5061571;28;20748;-75
2022/01/07 02:18:03;;;;;;;2.10;2.00;;;;;;;;;;5064639;28;20243;-72
2022/01/07 02:20:51;;;;;;;2.30;2.20;;;;;;;;;;5058158;28;20220;-74
2022/01/07 02:23:38;;;;;;;2.00;1.90;;;;;;;;;;5063211;28;20735;-74
2022/01/07 02:26:25;;;;;;;2.00;1.90;;;;;;;;;;5061334;28;20296;-76
2022/01/07 02:29:12;;;;;;;2.30;2.20;;;;;;;;;;5063941;28;20228;-76
2022/01/07 02:31:59;;;;;;;1.73;1.63;;;;;;;;;;5062821;28;20219;-76
2022/01/07 02:34:47;;;;;;;2.03;1.93;;;;;;;;;;5062685;28;20233;-76
2022/01/07 02:37:36;;;;;;;2.30;2.20;;;;;;;;;;5062894;28;20208;-75
2022/01/07 02:40:23;;;;;;;2.13;2.03;;;;;;;;;;5064622;28;20821;-75
2022/01/07 02:43:10;;;;;;;2.03;1.93;;;;;;;;;;5064374;28;20688;-75
2022/01/07 02:45:57;;;;;;;1.80;1.70;;;;;;;;;;5063756;28;20754;-75
2022/01/07 02:48:44;;;;;;;1.73;1.63;;;;;;;;;;5060321;28;20269;-74
2022/01/07 02:51:31;;;;;;;1.80;1.70;;;;;;;;;;5062789;28;20287;-74
2022/01/07 02:54:19;;;;;;;1.90;1.80;;;;;;;;;;5065851;28;20294;-75
2022/01/07 02:57:07;;;;;;;1.60;1.50;;;;;;;;;;5058403;28;20288;-75
2022/01/07 02:59:54;;;;;;;1.70;1.60;;;;;;;;;;5065113;28;20239;-73
2022/01/07 03:02:41;;;;;;;1.70;1.60;;;;;;;;;;5061852;28;20235;-74
2022/01/07 03:05:28;;;;;;;1.67;1.57;;;;;;;;;;5063181;28;20235;-75
2022/01/07 03:08:15;;;;;;;1.80;1.70;;;;;;;;;;5063046;28;20325;-75
2022/01/07 03:11:03;;;;;;;1.70;1.60;;;;;;;;;;5060328;28;20204;-75
2022/01/07 03:13:51;;;;;;;1.70;1.60;;;;;;;;;;5063650;28;20203;-75
2022/01/07 03:16:39;;;;;;;1.80;1.70;;;;;;;;;;5063355;28;20216;-75
2022/01/07 03:19:26;;;;;;;1.47;1.47;;;;;;;;;;5062380;28;20591;-75
2022/01/07 03:22:13;;;;;;;1.57;1.47;;;;;;;;;;5062475;28;20208;-75
2022/01/07 03:25:00;;;;;;;1.70;1.60;;;;;;;;;;5060396;28;20242;-75
2022/01/07 03:27:48;;;;;;;1.70;1.60;;;;;;;;;;5060010;28;20196;-75
2022/01/07 03:30:35;;;;;;;1.57;1.47;;;;;;;;;;5061877;28;20270;-76
2022/01/07 03:33:22;;;;;;;1.90;1.80;;;;;;;;;;5060707;28;20300;-75
2022/01/07 03:36:09;;;;;;;1.70;1.60;;;;;;;;;;5063245;28;20600;-75
2022/01/07 03:39:00;;;;;;;2.03;1.93;;;;;;;;;;5058400;28;20240;-74
2022/01/07 03:41:47;;;;;;;2.57;2.37;;;;;;;;;;5063035;28;20227;-76
2022/01/07 03:44:35;;;;;;;3.00;2.70;;;;;;;;;;5060888;28;20218;-75
2022/01/07 03:47:22;;;;;;;3.37;3.07;;;;;;;;;;5069616;28;20618;-76
2022/01/07 03:50:11;;;;;;;3.70;3.40;;;;;;;;;;5067904;28;20204;-75
2022/01/07 03:52:59;;;;;;;4.30;3.60;;;;;;;;;;5065144;28;20304;-73
2022/01/07 03:55:46;;;;;;;4.23;3.83;;;;;;;;;;5065741;28;20672;-75
2022/01/07 03:58:33;;;;;;;4.50;3.97;;;;;;;;;;5064574;28;20267;-75
2022/01/07 04:01:21;;;;;;;4.60;4.20;;;;;;;;;;5068950;28;20630;-75
2022/01/07 04:04:08;;;;;;;5.47;4.20;;;;;;;;;;5063878;28;20231;-75
2022/01/07 04:06:55;;;;;;;4.60;4.20;;;;;;;;;;5064632;28;20296;-75
2022/01/07 04:09:42;;;;;;;4.33;3.93;;;;;;;;;;5063511;28;20268;-75
2022/01/07 04:12:29;;;;;;;4.83;3.87;;;;;;;;;;5067032;28;20696;-75
2022/01/07 04:15:16;;;;;;;4.13;3.73;;;;;;;;;;5066157;28;20337;-75
2022/01/07 04:18:04;;;;;;;4.73;3.70;;;;;;;;;;5064243;28;20236;-74
2022/01/07 04:20:51;;;;;;;4.00;3.60;;;;;;;;;;5064936;28;20212;-75
2022/01/07 04:23:38;;;;;;;4.20;3.40;;;;;;;;;;5062791;28;20207;-75
2022/01/07 04:26:25;;;;;;;3.87;3.47;;;;;;;;;;5065242;28;20256;-76
2022/01/07 04:29:12;;;;;;;3.87;3.50;;;;;;;;;;5059692;28;20207;-75
2022/01/07 04:32:01;;;;;;;3.50;3.17;;;;;;;;;;5064931;28;20257;-75
2022/01/07 04:34:50;;;;;;;3.43;3.10;;;;;;;;;;5064758;28;20748;-74
2022/01/07 04:37:37;;;;;;;4.17;3.73;;;;;;;;;;5064075;28;20217;-75
2022/01/07 04:40:27;;;;;;;3.73;3.07;;;;;;;;;;5065126;28;20230;-75
2022/01/07 04:43:14;;;;;;;3.60;3.20;;;;;;;;;;5063148;28;20297;-75
2022/01/07 04:46:01;;;;;;;3.60;3.30;;;;;;;;;;5063909;28;20281;-75
2022/01/07 04:48:48;;;;;;;3.50;2.90;;;;;;;;;;5063952;28;20853;-75
2022/01/07 04:51:36;;;;;;;2.70;2.50;;;;;;;;;;5064974;28;20333;-75
2022/01/07 04:54:23;;;;;;;2.63;2.43;;;;;;;;;;5062621;28;20295;-74
2022/01/07 04:57:10;;;;;;;2.97;2.67;;;;;;;;;;5061478;28;20268;-73
2022/01/07 04:59:57;;;;;;;2.80;2.60;;;;;;;;;;5068114;28;20330;-74
2022/01/07 05:02:45;;;;;;;3.00;2.77;;;;;;;;;;5065444;28;20678;-72
2022/01/07 05:05:32;;;;;;;2.87;2.67;;;;;;;;;;5065983;28;20276;-75
2022/01/07 05:08:20;;;;;;;3.97;2.50;;;;;;;;;;5065068;28;20351;-76
2022/01/07 05:11:07;;;;;;;2.70;2.47;;;;;;;;;;5061873;28;20572;-75
2022/01/07 05:13:54;;;;;;;2.33;2.13;;;;;;;;;;5065897;28;20686;-75
2022/01/07 05:16:41;;;;;;;2.83;2.13;;;;;;;;;;5066280;28;20328;-76
2022/01/07 05:19:28;;;;;;;2.30;2.20;;;;;;;;;;5060263;28;20212;-74
2022/01/07 05:22:17;;;;;;;2.67;2.30;;;;;;;;;;5065656;28;20244;-74
2022/01/07 05:25:07;;;;;;;2.60;2.20;;;;;;;;;;5065605;28;20672;-75
2022/01/07 05:27:54;;;;;;;2.50;2.30;;;;;;;;;;5065819;28;20230;-74
2022/01/07 05:30:41;;;;;;;2.30;2.10;;;;;;;;;;5066621;28;20288;-75
2022/01/07 05:33:28;;;;;;;1.90;1.77;;;;;;;;;;5063607;28;20304;-76
2022/01/07 05:36:14;;;;;;;2.33;2.13;;;;;;;;;;5063775;28;20656;-75
2022/01/07 05:39:01;;;;;;;2.40;2.20;;;;;;;;;;5064293;28;20763;-75
2022/01/07 05:41:50;;;;;;;2.20;2.00;;;;;;;;;;5062605;28;20690;-75
2022/01/07 05:44:37;;;;;;;1.80;1.70;;;;;;;;;;5064913;28;20545;-76
2022/01/07 05:47:24;;;;;;;1.60;1.50;;;;;;;;;;5062392;28;20277;-74
2022/01/07 05:50:11;;;;;;;1.80;1.70;;;;;;;;;;5061914;28;20221;-75
2022/01/07 05:52:58;;;;;;;1.63;1.50;;;;;;;;;;5065184;28;20207;-74
2022/01/07 05:55:45;;;;;;;1.57;1.47;;;;;;;;;;5064138;28;20731;-75
2022/01/07 05:58:34;;;;;;;1.70;1.60;;;;;;;;;;5061780;28;20204;-75
2022/01/07 06:01:21;;;;;;;2.10;1.80;;;;;;;;;;5063784;28;20261;-75
2022/01/07 06:04:08;;;;;;;1.57;1.47;;;;;;;;;;5062662;28;20281;-76
2022/01/07 06:06:55;;;;;;;1.47;1.37;;;;;;;;;;5065434;28;20277;-75
2022/01/07 06:09:42;;;;;;;1.67;1.57;;;;;;;;;;5059721;28;20710;-76
2022/01/07 06:12:29;;;;;;;1.30;1.20;;;;;;;;;;5062118;28;20810;-74
2022/01/07 06:15:17;;;;;;;1.40;1.30;;;;;;;;;;5062251;28;20222;-75
2022/01/07 06:18:04;;;;;;;1.50;1.40;;;;;;;;;;5064601;28;20636;-74
2022/01/07 06:20:51;;;;;;;1.30;1.20;;;;;;;;;;5064203;28;20211;-75
2022/01/07 06:23:38;;;;;;;1.30;1.20;;;;;;;;;;5059986;28;20824;-75
2022/01/07 06:26:25;;;;;;;1.33;1.23;;;;;;;;;;5059430;28;20629;-75
2022/01/07 06:29:12;;;;;;;1.10;1.00;;;;;;;;;;5064733;28;20210;-76
2022/01/07 06:32:01;;;;;;;1.10;1.00;;;;;;;;;;5060333;28;20195;-75
2022/01/07 06:34:47;;;;;;;1.27;1.27;;;;;;;;;;5062961;28;20344;-75
2022/01/07 06:37:34;;;;;;;1.10;1.10;;;;;;;;;;5063539;28;21322;-76
2022/01/07 06:40:21;;;;;;;1.10;1.00;;;;;;;;;;5062928;28;20726;-75
2022/01/07 06:43:08;;;;;;;0.90;0.90;;;;;;;;;;5061836;28;20211;-75
2022/01/07 06:45:55;;;;;;;0.80;0.80;;;;;;;;;;5062218;28;20322;-76
2022/01/07 06:48:44;;;;;;;1.10;1.10;;;;;;;;;;5065649;28;20211;-76
2022/01/07 06:51:32;;;;;;;0.90;0.90;;;;;;;;;;5062137;28;20208;-75
2022/01/07 06:54:19;;;;;;;0.90;0.90;;;;;;;;;;5058193;28;20210;-74
2022/01/07 06:57:07;;;;;;;0.80;0.80;;;;;;;;;;5064683;28;20210;-75
2022/01/07 06:59:53;;;;;;;0.90;0.90;;;;;;;;;;5058801;28;20687;-75
2022/01/07 07:02:40;;;;;;;1.00;0.90;;;;;;;;;;5066302;28;20290;-76
2022/01/07 07:05:29;;;;;;;0.70;0.70;;;;;;;;;;5062154;28;20310;-74
2022/01/07 07:08:16;;;;;;;0.73;0.73;;;;;;;;;;5063137;28;20332;-75
2022/01/07 07:11:03;;;;;;;0.70;0.70;;;;;;;;;;5061906;28;20303;-74
2022/01/07 07:13:50;;;;;;;0.80;0.80;;;;;;;;;;5064576;28;20565;-76
2022/01/07 07:16:37;;;;;;;0.67;0.67;;;;;;;;;;5060586;28;20277;-74
2022/01/07 07:19:24;;;;;;;0.80;0.80;;;;;;;;;;5064042;28;20212;-75
2022/01/07 07:22:12;;;;;;;0.83;0.83;;;;;;;;;;5067621;28;20759;-75
2022/01/07 07:24:59;;;;;;;0.60;0.60;;;;;;;;;;5067984;28;20260;-74
2022/01/07 07:27:46;;;;;;;0.80;0.80;;;;;;;;;;5064540;28;20289;-75
2022/01/07 07:30:36;;;;;;;0.70;0.70;;;;;;;;;;5065611;28;20715;-75
2022/01/07 07:33:42;;;;;;;0.67;0.67;;;;;;;;;;5065298;28;20217;-77
2022/01/07 07:36:31;;;;;;;1.00;1.00;;;;;;;;;;5063396;28;20204;-75
2022/01/07 07:39:19;;;;;;;0.90;0.90;;;;;;;;;;5066314;28;20207;-76
2022/01/07 07:42:06;;;;;;;0.77;0.77;;;;;;;;;;5067631;28;20330;-75
2022/01/07 07:44:53;;;;;;;0.80;0.80;;;;;;;;;;5064865;28;20663;-75
2022/01/07 07:47:41;;;;;;;0.80;0.80;;;;;;;;;;5066753;28;20312;-75
2022/01/07 07:50:28;;;;;;;0.80;0.80;;;;;;;;;;5064597;28;20207;-75
2022/01/07 07:53:15;;;;;;;0.63;0.63;;;;;;;;;;5066945;28;20698;-74
2022/01/07 07:56:03;;;;;;;0.80;0.80;;;;;;;;;;5067145;28;20220;-75
2022/01/07 07:58:50;;;;;;;0.70;0.70;;;;;;;;;;5066153;28;20234;-75
2022/01/07 08:01:37;;;;;;;0.77;0.77;;;;;;;;;;5067065;28;20196;-75
2022/01/07 08:04:24;;;;;;;0.77;0.77;;;;;;;;;;5066072;28;20691;-74
2022/01/07 08:07:16;;;;;;;0.70;0.70;;;;;;;;;;5064917;28;20228;-75
2022/01/07 08:10:04;;;;;;;0.90;0.90;;;;;;;;;;5068047;28;20515;-75
2022/01/07 08:13:03;;;;;;;0.87;0.87;;;;;;;;;;5065905;28;20211;-75
2022/01/07 08:15:58;;;;;;;0.70;0.70;;;;;;;;;;5069026;28;20555;-75
2022/01/07 08:18:45;;;;;;;0.80;0.80;;;;;;;;;;5064992;28;20243;-74
2022/01/07 08:21:32;;;;;;;0.73;0.73;;;;;;;;;;5062979;28;20292;-75
2022/01/07 08:24:19;;;;;;;0.60;0.60;;;;;;;;;;5066503;28;20333;-75
2022/01/07 08:27:06;;;;;;;0.87;0.87;;;;;;;;;;5063628;28;20292;-74
2022/01/07 08:29:54;;;;;;;0.77;0.77;;;;;;;;;;5063871;28;20250;-75
2022/01/07 08:35:46;;;;;;;0.67;0.67;;;;;;;;;;5065119;28;20290;-75
2022/01/07 08:38:33;;;;;;;0.70;0.70;;;;;;;;;;5064512;28;20683;-75
2022/01/07 08:41:21;;;;;;;0.60;0.60;;;;;;;;;;5065507;28;20246;-76
2022/01/07 08:44:09;;;;;;;0.70;0.70;;;;;;;;;;5064523;28;20200;-76
2022/01/07 08:46:57;;;;;;;0.63;0.63;;;;;;;;;;5067602;28;20663;-75
2022/01/07 08:49:44;;;;;;;0.60;0.60;;;;;;;;;;5066477;28;20214;-75
2022/01/07 08:52:31;;;;;;;0.60;0.60;;;;;;;;;;5067211;28;20246;-75
2022/01/07 08:55:18;;;;;;;0.63;0.63;;;;;;;;;;5065271;28;20239;-75
2022/01/07 08:58:05;;;;;;;0.50;0.50;;;;;;;;;;5060494;28;20299;-74
2022/01/07 09:00:53;;;;;;;0.43;0.43;;;;;;;;;;5067604;28;20714;-75
2022/01/07 09:03:41;;;;;;;0.50;0.50;;;;;;;;;;5062494;28;20327;-74
2022/01/07 09:06:28;;;;;;;0.67;0.67;;;;;;;;;;5067315;28;20204;-75
2022/01/07 09:09:15;;;;;;;0.50;0.50;;;;;;;;;;5066300;28;20373;-74
2022/01/07 09:12:02;;;;;;;1.63;0.70;;;;;;;;;;5065192;28;20242;-74
2022/01/07 09:14:49;;;;;;;0.73;0.57;;;;;;;;;;5066417;28;20231;-74
2022/01/07 09:17:36;;;;;;;0.57;0.57;;;;;;;;;;5062578;28;20247;-75
2022/01/07 09:20:24;;;;;;;0.50;0.50;;;;;;;;;;5063200;28;20250;-75
2022/01/07 09:23:12;;;;;;;1.30;0.70;;;;;;;;;;5066144;28;20212;-75
2022/01/07 09:25:58;;;;;;;0.80;0.80;;;;;;;;;;5063834;28;20452;-74
2022/01/07 09:28:45;;;;;;;0.70;0.70;;;;;;;;;;5062560;28;20718;-75
2022/01/07 09:31:33;;;;;;;0.60;0.60;;;;;;;;;;5066224;28;20206;-75
2022/01/07 09:34:20;;;;;;;1.00;0.60;;;;;;;;;;5058505;28;20208;-75
2022/01/07 09:37:09;;;;;;;0.60;0.60;;;;;;;;;;5065471;28;20255;-75
2022/01/07 09:39:56;;;;;;;0.73;0.73;;;;;;;;;;5063047;28;20208;-74
2022/01/07 09:42:54;;;;;;;0.70;0.70;;;;;;;;;;5062620;28;20287;-75
2022/01/07 09:45:42;;;;;;;0.63;0.63;;;;;;;;;;5065023;28;20262;-73
2022/01/07 09:48:29;;;;;;;0.50;0.50;;;;;;;;;;5060206;28;20258;-75
2022/01/07 09:51:16;;;;;;;0.53;0.53;;;;;;;;;;5060984;28;20747;-74
2022/01/07 09:54:05;;;;;;;0.50;0.50;;;;;;;;;;5063501;28;20732;-75
2022/01/07 09:56:52;;;;;;;0.80;0.80;;;;;;;;;;5063134;28;20601;-72
2022/01/07 09:59:39;;;;;;;0.63;0.63;;;;;;;;;;5066820;28;20213;-75
2022/01/07 10:02:26;;;;;;;0.60;0.60;;;;;;;;;;5065116;28;20308;-74
2022/01/07 10:05:17;;;;;;;0.60;0.60;;;;;;;;;;5064086;28;20320;-75
2022/01/07 10:08:20;;;;;;;0.50;0.50;;;;;;;;;;5062161;28;20238;-75
2022/01/07 10:11:15;;;;;;;0.40;0.40;;;;;;;;;;5062151;28;20301;-74
2022/01/07 10:14:17;;;;;;;0.50;0.50;;;;;;;;;;5066002;28;20220;-75
2022/01/07 10:17:04;;;;;;;0.50;0.50;;;;;;;;;;5063699;28;20697;-75
2022/01/07 10:19:53;;;;;;;0.40;0.40;;;;;;;;;;5063013;28;20326;-74
2022/01/07 10:22:52;;;;;;;0.60;0.60;;;;;;;;;;5064216;28;20203;-75
2022/01/07 10:25:41;;;;;;;0.63;0.63;;;;;;;;;;5063922;28;20211;-75
2022/01/07 10:28:31;;;;;;;0.40;0.40;;;;;;;;;;5064239;28;20722;-75
2022/01/07 10:31:23;;;;;;;0.40;0.40;;;;;;;;;;5061826;28;20297;-74
2022/01/07 10:34:10;;;;;;;0.67;0.67;;;;;;;;;;5065809;28;20290;-75
2022/01/07 10:36:57;;;;;;;0.50;0.50;;;;;;;;;;5064249;28;20238;-75
2022/01/07 10:39:44;;;;;;;0.50;0.50;;;;;;;;;;5064362;28;20341;-74
2022/01/07 10:42:30;;;;;;;0.60;0.60;;;;;;;;;;5061301;28;20207;-74
2022/01/07 10:45:19;;;;;;;0.60;0.60;;;;;;;;;;5065477;28;20231;-74
2022/01/07 10:48:07;;;;;;;0.90;0.90;;;;;;;;;;5061935;28;20249;-75
2022/01/07 10:50:55;;;;;;;0.60;0.60;;;;;;;;;;5064159;28;20208;-75
2022/01/07 10:53:48;;;;;;;0.80;0.80;;;;;;;;;;5061640;28;20241;-74
2022/01/07 10:56:37;;;;;;;1.80;0.77;;;;;;;;;;5065079;28;20670;-74
2022/01/07 10:59:23;;;;;;;0.80;0.80;;;;;;;;;;5069559;28;20565;-74
2022/01/07 11:02:12;;;;;;;0.67;0.67;;;;;;;;;;5066098;28;20686;-74
2022/01/07 11:04:59;;;;;;;0.90;0.90;;;;;;;;;;5067628;28;20231;-75
2022/01/07 11:07:47;;;;;;;0.80;0.80;;;;;;;;;;5067725;28;20317;-74
2022/01/07 11:10:36;;;;;;;0.70;0.70;;;;;;;;;;5065397;28;20212;-75
2022/01/07 11:13:23;;;;;;;0.70;0.70;;;;;;;;;;5067632;28;20218;-74
2022/01/07 11:16:10;;;;;;;0.67;0.67;;;;;;;;;;5066308;28;20231;-75
2022/01/07 11:19:00;;;;;;;0.80;0.80;;;;;;;;;;5068285;28;20196;-74
2022/01/07 11:21:51;;;;;;;0.67;0.60;;;;;;;;;;5067404;28;20268;-74
2022/01/07 11:24:43;;;;;;;0.50;0.50;;;;;;;;;;5066687;28;20297;-74
2022/01/07 11:27:30;;;;;;;0.57;0.57;;;;;;;;;;5067677;28;21444;-74
2022/01/07 11:30:19;;;;;;;0.90;0.90;;;;;;;;;;5067792;28;20268;-75
2022/01/07 11:33:16;;;;;;;0.90;0.90;;;;;;;;;;5067116;28;20687;-74
2022/01/07 11:36:10;;;;;;;0.70;0.70;;;;;;;;;;5065298;28;20219;-73
2022/01/07 11:39:03;;;;;;;0.90;0.90;;;;;;;;;;5063430;28;20247;-74
2022/01/07 11:41:53;;;;;;;0.70;0.70;;;;;;;;;;5067894;28;20219;-74
2022/01/07 11:44:40;;;;;;;1.37;0.90;;;;;;;;;;5065976;28;20312;-74
2022/01/07 11:47:27;;;;;;;0.70;0.70;;;;;;;;;;5067488;28;20211;-74
2022/01/07 11:50:14;;;;;;;0.73;0.73;;;;;;;;;;5066177;28;20773;-73
2022/01/07 11:53:05;;;;;;;0.60;0.60;;;;;;;;;;5067414;28;20558;-74
2022/01/07 11:55:58;;;;;;;1.27;0.80;;;;;;;;;;5065345;28;20300;-73
2022/01/07 11:58:47;;;;;;;0.60;0.60;;;;;;;;;;5065520;28;20570;-74
2022/01/07 12:01:36;;;;;;;0.67;0.67;;;;;;;;;;5064155;28;20211;-74
2022/01/07 12:04:27;;;;;;;0.63;0.63;;;;;;;;;;5068050;28;20235;-74
2022/01/07 12:07:14;;;;;;;0.47;0.47;;;;;;;;;;5066687;28;20208;-74
2022/01/07 12:10:12;;;;;;;0.60;0.60;;;;;;;;;;5063228;28;20236;-74
2022/01/07 12:13:00;;;;;;;0.50;0.50;;;;;;;;;;5066182;28;20239;-74
2022/01/07 12:15:55;;;;;;;0.70;0.70;;;;;;;;;;5063704;28;20703;-74
2022/01/07 12:18:42;;;;;;;0.67;0.67;;;;;;;;;;5065325;28;20257;-73
2022/01/07 12:21:28;;;;;;;0.43;0.43;;;;;;;;;;5065326;28;20298;-74
2022/01/07 12:24:17;;;;;;;0.40;0.40;;;;;;;;;;5064592;28;20281;-74
2022/01/07 12:27:07;;;;;;;0.50;0.50;;;;;;;;;;5065368;28;20239;-74
2022/01/07 12:29:55;;;;;;;0.60;0.60;;;;;;;;;;5066654;28;20231;-74
2022/01/07 12:32:44;;;;;;;0.50;0.50;;;;;;;;;;5063684;28;20208;-74
2022/01/07 12:35:31;;;;;;;0.50;0.50;;;;;;;;;;5065496;28;20211;-75
2022/01/07 12:38:21;;;;;;;0.53;0.53;;;;;;;;;;5065510;28;20235;-74
2022/01/07 12:41:08;;;;;;;0.50;0.50;;;;;;;;;;5061769;28;20208;-74
2022/01/07 12:44:06;;;;;;;0.77;0.57;;;;;;;;;;5067084;28;20207;-73
2022/01/07 12:46:56;;;;;;;0.50;0.50;;;;;;;;;;5064833;28;20211;-76
2022/01/07 12:49:45;;;;;;;0.63;0.50;;;;;;;;;;5064276;28;20306;-74
2022/01/07 12:52:34;;;;;;;0.30;0.30;;;;;;;;;;5062909;28;20392;-74
2022/01/07 12:55:23;;;;;;;0.50;0.50;;;;;;;;;;5062784;28;20289;-72
2022/01/07 12:58:10;;;;;;;0.50;0.50;;;;;;;;;;5065004;28;20675;-74
2022/01/07 13:00:58;;;;;;;0.90;0.90;;;;;;;;;;5063100;28;20260;-74
2022/01/07 13:03:45;;;;;;;0.90;0.90;;;;;;;;;;5066326;28;20314;-74
2022/01/07 13:06:37;;;;;;;1.00;1.00;;;;;;;;;;5064164;28;20298;-74
2022/01/07 13:09:26;;;;;;;1.20;1.20;;;;;;;;;;5062211;28;20321;-74
2022/01/07 13:12:13;;;;;;;1.30;1.30;;;;;;;;;;5066818;28;20216;-74
2022/01/07 13:15:00;;;;;;;1.00;1.00;;;;;;;;;;5062738;28;20208;-74
2022/01/07 13:17:48;;;;;;;1.20;1.20;;;;;;;;;;5059698;28;20295;-72
2022/01/07 13:20:35;;;;;;;1.37;1.37;;;;;;;;;;5064540;28;20295;-74
2022/01/07 13:23:24;;;;;;;1.10;1.10;;;;;;;;;;5063706;28;20250;-74
2022/01/07 13:26:12;;;;;;;1.27;1.27;;;;;;;;;;5063565;28;20286;-73
2022/01/07 13:29:15;;;;;;;1.20;1.20;;;;;;;;;;5064110;28;20285;-74
2022/01/07 13:32:05;;;;;;;1.30;1.20;;;;;;;;;;5067359;28;20207;-71
2022/01/07 13:34:53;;;;;;;1.10;1.10;;;;;;;;;;5064357;28;20215;-74
2022/01/07 13:37:45;;;;;;;1.00;1.00;;;;;;;;;;5061741;28;20242;-73
2022/01/07 13:40:34;;;;;;;0.80;0.80;;;;;;;;;;5063511;28;20208;-73
2022/01/07 13:43:20;;;;;;;0.90;0.90;;;;;;;;;;5064085;28;20210;-75
2022/01/07 13:46:12;;;;;;;1.00;1.00;;;;;;;;;;5061937;28;20354;-73
2022/01/07 13:49:04;;;;;;;1.13;1.13;;;;;;;;;;5067731;28;20346;-74
2022/01/07 13:51:56;;;;;;;1.00;1.00;;;;;;;;;;5065566;28;20256;-74
2022/01/07 13:54:45;;;;;;;0.90;0.90;;;;;;;;;;5065637;28;20204;-73
2022/01/07 13:57:34;;;;;;;1.10;1.10;;;;;;;;;;5064639;28;20200;-75
2022/01/07 14:00:21;;;;;;;1.00;1.00;;;;;;;;;;5063412;28;20294;-74
2022/01/07 14:03:10;;;;;;;0.80;0.80;;;;;;;;;;5064819;28;20214;-73
2022/01/07 14:06:04;;;;;;;0.70;0.70;;;;;;;;;;5065531;28;20240;-74
2022/01/07 14:09:11;;;;;;;1.00;1.00;;;;;;;;;;5064737;28;20242;-74
2022/01/07 14:12:04;;;;;;;0.83;0.83;;;;;;;;;;5062720;28;20219;-74
2022/01/07 14:15:02;;;;;;;0.90;0.90;;;;;;;;;;5064451;28;20208;-73
2022/01/07 14:17:49;;;;;;;0.80;0.80;;;;;;;;;;5062119;28;20267;-74
2022/01/07 14:20:47;;;;;;;0.80;0.80;;;;;;;;;;5064612;28;20794;-75
2022/01/07 14:23:36;;;;;;;1.30;0.87;;;;;;;;;;5064783;28;20216;-73
2022/01/07 14:26:25;;;;;;;0.80;0.80;;;;;;;;;;5060261;28;20317;-73
2022/01/07 14:29:12;;;;;;;0.73;0.73;;;;;;;;;;5064440;28;20220;-73
2022/01/07 14:31:59;;;;;;;0.80;0.80;;;;;;;;;;5056644;28;20353;-73
2022/01/07 14:34:46;;;;;;;0.70;0.70;;;;;;;;;;5061726;28;20802;-75
2022/01/07 14:37:34;;;;;;;1.00;1.00;;;;;;;;;;5062855;28;20685;-75
2022/01/07 14:40:20;;;;;;;0.80;0.80;;;;;;;;;;5066689;28;20289;-75
2022/01/07 14:43:09;;;;;;;0.90;0.90;;;;;;;;;;5060421;28;20261;-73
2022/01/07 14:45:56;;;;;;;0.80;0.80;;;;;;;;;;5059344;28;20288;-74
2022/01/07 14:48:43;;;;;;;0.90;0.90;;;;;;;;;;5062410;28;20356;-73
2022/01/07 14:51:30;;;;;;;0.80;0.80;;;;;;;;;;5063293;28;20211;-75
2022/01/07 14:54:17;;;;;;;0.70;0.70;;;;;;;;;;5061869;28;20302;-74
2022/01/07 14:57:04;;;;;;;0.93;0.93;;;;;;;;;;5064077;28;20278;-74
2022/01/07 14:59:52;;;;;;;0.90;0.90;;;;;;;;;;5064317;28;20244;-74
2022/01/07 15:02:40;;;;;;;0.90;0.90;;;;;;;;;;5060292;28;20277;-75
2022/01/07 15:05:27;;;;;;;0.73;0.73;;;;;;;;;;5063861;28;20231;-75
2022/01/07 15:08:14;;;;;;;0.87;0.87;;;;;;;;;;5063526;28;20648;-75
2022/01/07 15:11:01;;;;;;;1.00;1.00;;;;;;;;;;5063554;28;20207;-75
2022/01/07 15:13:48;;;;;;;0.70;0.70;;;;;;;;;;5062481;28;20218;-74
2022/01/07 15:16:36;;;;;;;0.80;0.80;;;;;;;;;;5063630;28;20333;-74
2022/01/07 15:19:29;;;;;;;0.83;0.83;;;;;;;;;;5062268;28;20772;-75
2022/01/07 15:22:16;;;;;;;0.70;0.70;;;;;;;;;;5063660;28;20293;-75
2022/01/07 15:25:03;;;;;;;0.73;0.73;;;;;;;;;;5063206;28;20244;-75
2022/01/07 15:27:50;;;;;;;0.80;0.80;;;;;;;;;;5061068;28;20326;-73
2022/01/07 15:30:37;;;;;;;0.90;0.90;;;;;;;;;;5061348;28;20227;-75
2022/01/07 15:33:25;;;;;;;0.80;0.80;;;;;;;;;;5064058;28;20258;-75
2022/01/07 15:36:12;;;;;;;0.90;0.90;;;;;;;;;;5060281;28;20208;-74
2022/01/07 15:38:59;;;;;;;0.70;0.70;;;;;;;;;;5059106;28;20208;-74
2022/01/07 15:41:46;;;;;;;0.87;0.87;;;;;;;;;;5063922;28;20692;-75
2022/01/07 15:44:33;;;;;;;1.10;1.10;;;;;;;;;;5064848;28;20207;-75
2022/01/07 15:47:20;;;;;;;0.73;0.73;;;;;;;;;;5068008;28;20211;-75
2022/01/07 15:50:10;;;;;;;1.00;1.00;;;;;;;;;;5061983;28;20318;-71
2022/01/07 15:52:57;;;;;;;0.80;0.80;;;;;;;;;;5066387;28;20309;-74
2022/01/07 15:55:43;;;;;;;0.90;0.90;;;;;;;;;;5068334;28;21426;-75
2022/01/07 15:58:30;;;;;;;0.90;0.90;;;;;;;;;;5066386;28;20946;-75
2022/01/07 16:01:18;;;;;;;0.90;0.90;;;;;;;;;;5066538;28;20207;-75
2022/01/07 16:04:05;;;;;;;0.67;0.67;;;;;;;;;;5066055;28;20312;-74
2022/01/07 16:06:53;;;;;;;1.03;1.03;;;;;;;;;;5063978;28;20744;-73
2022/01/07 16:09:41;;;;;;;1.00;1.00;;;;;;;;;;5064529;28;20308;-73
2022/01/07 16:12:28;;;;;;;1.17;1.17;;;;;;;;;;5066039;28;20731;-75
2022/01/07 16:15:14;;;;;;;1.13;1.13;;;;;;;;;;5063066;28;20811;-74
2022/01/07 16:18:01;;;;;;;1.10;1.10;;;;;;;;;;5064515;28;20207;-74
2022/01/07 16:20:48;;;;;;;1.10;1.10;;;;;;;;;;5067974;28;20208;-74
2022/01/07 16:23:37;;;;;;;1.67;1.20;;;;;;;;;;5065067;28;20241;-74
2022/01/07 16:26:24;;;;;;;0.90;0.90;;;;;;;;;;5063540;28;20210;-74
2022/01/07 16:29:11;;;;;;;1.20;1.10;;;;;;;;;;5068786;28;20749;-75
2022/01/07 16:31:58;;;;;;;1.20;1.20;;;;;;;;;;5067090;28;20218;-74
2022/01/07 16:34:45;;;;;;;0.90;0.90;;;;;;;;;;5065842;28;20289;-74
2022/01/07 16:37:32;;;;;;;1.30;1.30;;;;;;;;;;5065632;28;21039;-75
2022/01/07 16:40:20;;;;;;;1.10;1.10;;;;;;;;;;5065923;28;20199;-75
2022/01/07 16:43:07;;;;;;;1.40;1.40;;;;;;;;;;5063423;28;20239;-74
2022/01/07 16:45:55;;;;;;;1.47;1.37;;;;;;;;;;5066576;28;20256;-75
2022/01/07 16:48:42;;;;;;;1.20;1.20;;;;;;;;;;5064921;28;20226;-74
2022/01/07 16:51:29;;;;;;;1.30;1.30;;;;;;;;;;5065404;28;20213;-75